Time;durP1;ratioP1;P1;durP2;ratioP2;P2;SDS_P1;SDS_P2;PMS_P1;PMS_P2;Temp;Humidity;BMP_temperature;BMP_pressure;BME280_temperature;BME280_humidity;BME280_pressure;Samples;Min_cycle;Max_cycle;Signal;HPM_P1;HPM_P2
2021/11/25 00:01:35;;;;;;;7.90;6.15;;;20.10;99.90;;;;;;4160155;28;20224;-73
2021/11/25 00:03:39;;;;;;;8.25;6.88;;;20.20;99.90;;;;;;4161640;28;20213;-73
2021/11/25 00:05:42;;;;;;;7.93;6.60;;;20.20;99.90;;;;;;4161395;28;20762;-74
2021/11/25 00:07:44;;;;;;;9.48;7.35;;;20.10;99.90;;;;;;4161756;28;20220;-72
2021/11/25 00:09:47;;;;;;;8.18;6.82;;;20.10;99.90;;;;;;4159808;28;20259;-71
2021/11/25 00:11:50;;;;;;;7.93;6.75;;;20.10;99.90;;;;;;4161458;28;20204;-71
2021/11/25 00:13:52;;;;;;;8.52;7.03;;;20.10;99.90;;;;;;4161300;28;20212;-71
2021/11/25 00:15:55;;;;;;;9.57;7.15;;;20.10;99.90;;;;;;4161416;28;20266;-71
2021/11/25 00:17:57;;;;;;;7.57;6.72;;;20.10;99.90;;;;;;4160736;28;20217;-71
2021/11/25 00:20:01;;;;;;;6.95;6.25;;;20.10;99.90;;;;;;4161491;28;20258;-71
2021/11/25 00:22:04;;;;;;;9.30;6.45;;;20.10;99.90;;;;;;4161287;28;20220;-71
2021/11/25 00:24:07;;;;;;;8.20;6.60;;;20.10;99.90;;;;;;4161453;28;20286;-71
2021/11/25 00:26:10;;;;;;;7.95;6.38;;;20.10;99.90;;;;;;4161439;28;20236;-71
2021/11/25 00:28:12;;;;;;;8.80;6.95;;;20.00;99.90;;;;;;4161728;28;20262;-71
2021/11/25 00:30:16;;;;;;;7.88;6.72;;;20.10;99.90;;;;;;4161863;28;20267;-73
2021/11/25 00:32:18;;;;;;;8.73;7.20;;;20.00;99.90;;;;;;4161891;28;20209;-73
2021/11/25 00:34:20;;;;;;;8.68;7.07;;;20.00;99.90;;;;;;4161390;28;20262;-74
2021/11/25 00:36:24;;;;;;;8.98;7.07;;;20.00;99.90;;;;;;4160002;28;20275;-73
2021/11/25 00:38:27;;;;;;;7.65;6.43;;;20.00;99.90;;;;;;4161716;28;20209;-73
2021/11/25 00:40:29;;;;;;;8.95;7.63;;;19.90;99.90;;;;;;4163850;28;20638;-73
2021/11/25 00:42:31;;;;;;;8.30;6.82;;;19.90;99.90;;;;;;4162882;28;20217;-73
2021/11/25 00:44:34;;;;;;;8.95;6.93;;;20.00;99.90;;;;;;4163751;28;20286;-73
2021/11/25 00:46:36;;;;;;;8.63;6.45;;;20.00;99.90;;;;;;4164076;28;20276;-73
2021/11/25 00:48:38;;;;;;;7.88;6.68;;;20.00;99.90;;;;;;4164412;28;20647;-74
2021/11/25 00:50:41;;;;;;;7.45;6.60;;;19.90;99.90;;;;;;4164296;28;20212;-74
2021/11/25 00:52:44;;;;;;;8.80;6.35;;;19.90;99.90;;;;;;4162977;28;20251;-74
2021/11/25 00:54:47;;;;;;;8.15;6.70;;;19.90;99.90;;;;;;4164601;28;20267;-73
2021/11/25 00:56:49;;;;;;;8.23;6.05;;;20.00;99.90;;;;;;4163697;28;20286;-71
2021/11/25 00:58:51;;;;;;;7.13;6.22;;;19.90;99.90;;;;;;4164187;28;20213;-72
2021/11/25 01:00:54;;;;;;;7.72;6.63;;;19.90;99.90;;;;;;4164097;28;20270;-71
2021/11/25 01:02:56;;;;;;;8.77;6.32;;;20.00;99.90;;;;;;4164205;28;20213;-73
2021/11/25 01:04:58;;;;;;;7.90;6.18;;;19.90;99.90;;;;;;4163937;28;20220;-73
2021/11/25 01:07:01;;;;;;;7.82;6.43;;;19.90;99.90;;;;;;4164381;28;20259;-73
2021/11/25 01:09:05;;;;;;;7.38;6.55;;;19.90;99.90;;;;;;4162285;28;20228;-73
2021/11/25 01:11:07;;;;;;;7.68;6.60;;;19.90;99.90;;;;;;4163694;28;20225;-74
2021/11/25 01:13:10;;;;;;;7.45;6.30;;;19.90;99.90;;;;;;4163735;28;20220;-73
2021/11/25 01:15:13;;;;;;;7.85;6.32;;;19.90;99.90;;;;;;4163787;28;20638;-71
2021/11/25 01:17:17;;;;;;;7.35;6.53;;;19.90;99.90;;;;;;4163773;28;20208;-73
2021/11/25 01:19:19;;;;;;;6.50;5.80;;;19.90;99.90;;;;;;4163844;28;20212;-74
2021/11/25 01:21:22;;;;;;;7.55;6.57;;;19.80;99.90;;;;;;4163660;28;20216;-71
2021/11/25 01:23:27;;;;;;;7.95;6.18;;;19.80;99.90;;;;;;4163951;28;20224;-71
2021/11/25 01:25:32;;;;;;;6.70;5.82;;;19.80;99.90;;;;;;4163326;28;20279;-71
2021/11/25 01:27:34;;;;;;;7.07;6.00;;;19.90;99.90;;;;;;4163564;28;20213;-71
2021/11/25 01:29:36;;;;;;;7.75;6.57;;;19.90;99.90;;;;;;4163376;28;20619;-71
2021/11/25 01:31:39;;;;;;;7.25;6.07;;;19.90;99.90;;;;;;4163551;28;20224;-71
2021/11/25 01:33:41;;;;;;;7.53;6.63;;;19.90;99.90;;;;;;4163715;28;20242;-71
2021/11/25 01:35:44;;;;;;;6.80;5.90;;;19.90;99.90;;;;;;4163731;28;20270;-71
2021/11/25 01:37:48;;;;;;;7.18;6.40;;;19.80;99.90;;;;;;4163702;28;20921;-73
2021/11/25 01:39:51;;;;;;;9.07;6.32;;;19.80;99.90;;;;;;4162643;28;20217;-73
2021/11/25 01:41:54;;;;;;;7.75;6.20;;;19.80;99.90;;;;;;4160678;28;20736;-74
2021/11/25 01:43:57;;;;;;;6.90;5.90;;;19.80;99.90;;;;;;4161643;28;20216;-73
2021/11/25 01:45:59;;;;;;;7.43;6.07;;;19.80;99.90;;;;;;4163272;28;20232;-74
2021/11/25 01:48:02;;;;;;;8.23;6.35;;;19.80;99.90;;;;;;4163218;28;20262;-73
2021/11/25 01:50:06;;;;;;;6.93;5.88;;;19.80;99.90;;;;;;4163190;28;20217;-71
2021/11/25 01:52:08;;;;;;;7.38;5.60;;;19.80;99.90;;;;;;4163440;28;21041;-71
2021/11/25 01:54:10;;;;;;;7.47;6.60;;;19.80;99.90;;;;;;4163176;28;20220;-73
2021/11/25 01:56:14;;;;;;;7.22;6.00;;;19.80;99.90;;;;;;4163157;28;20224;-73
2021/11/25 01:58:18;;;;;;;7.93;6.22;;;19.80;99.90;;;;;;4163127;28;20270;-73
2021/11/25 02:00:25;;;;;;;9.75;6.60;;;19.70;99.90;;;;;;4162855;28;20266;-71
2021/11/25 02:02:27;;;;;;;8.13;6.20;;;19.80;99.90;;;;;;4163467;28;20657;-71
2021/11/25 02:04:30;;;;;;;6.72;5.68;;;19.70;99.90;;;;;;4163280;28;20216;-71
2021/11/25 02:06:33;;;;;;;6.38;5.47;;;19.70;99.90;;;;;;4163568;28;21036;-71
2021/11/25 02:08:35;;;;;;;8.05;6.38;;;19.70;99.90;;;;;;4163222;28;20262;-71
2021/11/25 02:10:41;;;;;;;7.72;6.28;;;19.70;99.90;;;;;;4162819;28;20286;-71
2021/11/25 02:12:45;;;;;;;7.40;5.97;;;19.70;99.90;;;;;;4163234;28;20212;-72
2021/11/25 02:14:50;;;;;;;7.20;5.82;;;19.80;99.90;;;;;;4162788;28;20258;-72
2021/11/25 02:16:52;;;;;;;8.50;6.93;;;19.70;99.90;;;;;;4160607;28;20258;-71
2021/11/25 02:18:57;;;;;;;9.27;6.72;;;19.70;99.90;;;;;;4162876;28;20263;-71
2021/11/25 02:21:02;;;;;;;7.53;6.05;;;19.70;99.90;;;;;;4162852;28;20247;-71
2021/11/25 02:23:06;;;;;;;6.97;5.80;;;19.60;99.90;;;;;;4162564;28;20224;-71
2021/11/25 02:25:11;;;;;;;7.40;6.13;;;19.70;99.90;;;;;;4163085;28;20266;-71
2021/11/25 02:27:13;;;;;;;7.95;6.00;;;19.60;99.90;;;;;;4162547;28;20240;-73
2021/11/25 02:29:15;;;;;;;7.70;5.55;;;19.70;99.90;;;;;;4162946;28;20224;-73
2021/11/25 02:31:20;;;;;;;7.03;5.82;;;19.70;99.90;;;;;;4163013;28;20220;-73
2021/11/25 02:33:22;;;;;;;6.28;5.63;;;19.70;99.90;;;;;;4160664;28;20259;-73
2021/11/25 02:35:28;;;;;;;8.60;6.30;;;19.60;99.90;;;;;;4162005;28;20311;-71
2021/11/25 02:37:31;;;;;;;7.22;5.97;;;19.60;99.90;;;;;;4160964;28;20216;-71
2021/11/25 02:39:34;;;;;;;7.35;6.07;;;19.60;99.90;;;;;;4162598;28;20278;-71
2021/11/25 02:41:37;;;;;;;7.28;5.90;;;19.60;99.90;;;;;;4162103;28;20209;-72
2021/11/25 02:43:40;;;;;;;7.40;6.20;;;19.70;99.90;;;;;;4162772;28;20726;-71
2021/11/25 02:45:48;;;;;;;7.50;6.32;;;19.70;99.90;;;;;;4162531;28;20212;-71
2021/11/25 02:47:50;;;;;;;6.97;6.28;;;19.70;99.90;;;;;;4162684;28;20261;-73
2021/11/25 02:49:52;;;;;;;8.02;6.20;;;19.70;99.90;;;;;;4162673;28;20209;-73
2021/11/25 02:51:55;;;;;;;8.20;6.57;;;19.60;99.90;;;;;;4159917;28;20665;-73
2021/11/25 02:54:00;;;;;;;8.10;6.32;;;19.60;99.90;;;;;;4162354;28;20213;-73
2021/11/25 02:56:05;;;;;;;8.05;6.40;;;19.60;99.90;;;;;;4162006;28;20705;-74
2021/11/25 02:58:08;;;;;;;8.32;5.97;;;19.60;99.90;;;;;;4162087;28;20209;-73
2021/11/25 03:00:29;;;;;;;9.65;6.32;;;19.60;99.90;;;;;;4162556;28;20618;-73
2021/11/25 03:02:31;;;;;;;7.60;6.22;;;19.60;99.90;;;;;;4161708;28;20209;-73
2021/11/25 03:04:33;;;;;;;7.72;6.22;;;19.60;99.90;;;;;;4162354;28;20212;-73
2021/11/25 03:06:36;;;;;;;8.40;6.60;;;19.60;99.90;;;;;;4161897;28;20236;-73
2021/11/25 03:08:39;;;;;;;7.60;6.28;;;19.60;99.90;;;;;;4159197;28;20216;-73
2021/11/25 03:10:46;;;;;;;7.97;6.57;;;19.50;99.90;;;;;;4161666;28;20213;-73
2021/11/25 03:12:48;;;;;;;6.82;5.97;;;19.60;99.90;;;;;;4162295;28;20250;-73
2021/11/25 03:14:50;;;;;;;8.23;6.32;;;19.60;99.90;;;;;;4162041;28;20213;-73
2021/11/25 03:16:53;;;;;;;8.00;6.72;;;19.60;99.90;;;;;;4162226;28;20263;-73
2021/11/25 03:18:55;;;;;;;8.18;7.07;;;19.60;99.90;;;;;;4162223;28;20214;-73
2021/11/25 03:20:59;;;;;;;6.53;5.82;;;19.50;99.90;;;;;;4161862;28;20217;-73
2021/11/25 03:23:01;;;;;;;8.93;7.10;;;19.60;99.90;;;;;;4162394;28;20220;-73
2021/11/25 03:25:05;;;;;;;8.43;6.70;;;19.50;99.90;;;;;;4159426;28;20224;-73
2021/11/25 03:27:09;;;;;;;7.95;6.72;;;19.50;99.90;;;;;;4161824;28;20696;-73
2021/11/25 03:29:11;;;;;;;8.45;6.43;;;19.50;99.90;;;;;;4158878;28;20217;-73
2021/11/25 03:31:16;;;;;;;7.40;6.30;;;19.50;99.90;;;;;;4160176;28;20209;-73
2021/11/25 03:33:19;;;;;;;7.07;6.03;;;19.50;99.90;;;;;;4162236;28;20711;-71
2021/11/25 03:35:21;;;;;;;7.72;6.93;;;19.50;99.90;;;;;;4162224;28;20217;-73
2021/11/25 03:37:23;;;;;;;8.93;7.65;;;19.40;99.90;;;;;;4161777;28;20263;-73
2021/11/25 03:39:26;;;;;;;9.40;6.82;;;19.50;99.90;;;;;;4160557;28;20267;-73
2021/11/25 03:41:28;;;;;;;7.72;6.93;;;19.40;99.90;;;;;;4161435;28;20208;-73
2021/11/25 03:43:32;;;;;;;8.13;6.57;;;19.50;99.90;;;;;;4158291;28;20263;-73
2021/11/25 03:45:35;;;;;;;7.80;6.60;;;19.50;99.90;;;;;;4160789;28;20274;-73
2021/11/25 03:47:37;;;;;;;8.85;7.05;;;19.50;99.90;;;;;;4161685;28;20232;-73
2021/11/25 03:49:40;;;;;;;7.60;6.40;;;19.50;99.90;;;;;;4161455;28;20262;-73
2021/11/25 03:51:42;;;;;;;7.80;6.70;;;19.50;99.90;;;;;;4161728;28;20208;-73
2021/11/25 03:53:46;;;;;;;8.25;6.80;;;19.40;99.90;;;;;;4161608;28;20216;-73
2021/11/25 03:55:48;;;;;;;8.27;6.78;;;19.40;99.90;;;;;;4161383;28;20654;-73
2021/11/25 03:57:51;;;;;;;10.02;7.43;;;19.40;99.90;;;;;;4161988;28;20266;-73
2021/11/25 03:59:55;;;;;;;8.05;6.63;;;19.40;99.90;;;;;;4161213;28;21596;-73
2021/11/25 04:01:57;;;;;;;9.98;6.47;;;19.40;99.90;;;;;;4161674;28;20217;-73
2021/11/25 04:03:59;;;;;;;8.43;6.80;;;19.40;99.90;;;;;;4161421;28;20204;-73
2021/11/25 04:06:02;;;;;;;8.90;7.28;;;19.40;99.90;;;;;;4159168;28;20220;-73
2021/11/25 04:08:05;;;;;;;8.52;6.43;;;19.50;99.90;;;;;;4160692;28;20229;-71
2021/11/25 04:10:10;;;;;;;8.88;6.88;;;19.40;99.90;;;;;;4160158;28;20212;-73
2021/11/25 04:12:12;;;;;;;8.15;6.95;;;19.40;99.90;;;;;;4161675;28;20255;-73
2021/11/25 04:14:15;;;;;;;8.77;7.05;;;19.50;99.90;;;;;;4164996;28;20262;-73
2021/11/25 04:16:18;;;;;;;8.57;6.45;;;19.40;99.90;;;;;;4164374;28;20212;-71
2021/11/25 04:18:21;;;;;;;7.45;6.65;;;19.40;99.90;;;;;;4164673;28;20620;-73
2021/11/25 04:20:23;;;;;;;8.77;7.13;;;19.40;99.90;;;;;;4164169;28;20208;-73
2021/11/25 04:22:25;;;;;;;9.23;7.38;;;19.40;99.90;;;;;;4164584;28;20220;-73
2021/11/25 04:24:28;;;;;;;7.28;6.05;;;19.40;99.90;;;;;;4164087;28;20270;-71
2021/11/25 04:26:30;;;;;;;8.85;7.25;;;19.40;99.90;;;;;;4165253;28;20672;-71
2021/11/25 04:28:32;;;;;;;7.90;6.72;;;19.40;99.90;;;;;;4164423;28;20645;-71
2021/11/25 04:30:52;;;;;;;8.07;6.97;;;19.40;99.90;;;;;;4164525;28;20216;-71
2021/11/25 04:35:31;;;;;;;8.75;6.60;;;19.40;99.90;;;;;;4164875;28;20608;-73
2021/11/25 04:37:34;;;;;;;8.30;6.75;;;19.40;99.90;;;;;;4164887;28;20230;-73
2021/11/25 04:39:36;;;;;;;9.23;6.85;;;19.40;99.90;;;;;;4166128;28;20216;-73
2021/11/25 04:41:38;;;;;;;10.23;8.07;;;19.30;99.90;;;;;;4164267;28;20225;-73
2021/11/25 04:43:40;;;;;;;8.63;6.93;;;19.30;99.90;;;;;;4163518;28;20246;-73
2021/11/25 04:45:44;;;;;;;8.38;7.20;;;19.40;99.90;;;;;;4164430;28;20270;-74
2021/11/25 04:47:47;;;;;;;8.95;7.32;;;19.40;99.90;;;;;;4164148;28;20228;-73
2021/11/25 04:49:50;;;;;;;9.68;6.90;;;19.40;99.90;;;;;;4163253;28;20664;-73
2021/11/25 04:51:52;;;;;;;9.43;7.45;;;19.40;99.90;;;;;;4162549;28;20243;-73
2021/11/25 04:53:56;;;;;;;8.45;7.40;;;19.40;99.90;;;;;;4164320;28;20212;-73
2021/11/25 04:55:58;;;;;;;9.80;7.90;;;19.40;99.90;;;;;;4164131;28;20288;-73
2021/11/25 04:58:01;;;;;;;8.07;7.28;;;19.40;99.90;;;;;;4164639;28;20216;-73
2021/11/25 05:00:05;;;;;;;8.30;7.13;;;19.40;99.90;;;;;;4164099;28;20217;-73
2021/11/25 05:02:07;;;;;;;9.35;7.68;;;19.40;99.90;;;;;;4163944;28;20212;-73
2021/11/25 05:04:10;;;;;;;8.50;6.95;;;19.40;99.90;;;;;;4164211;28;21615;-73
2021/11/25 05:06:14;;;;;;;9.85;7.28;;;19.40;99.90;;;;;;4162699;28;20622;-72
2021/11/25 05:08:16;;;;;;;8.13;6.80;;;19.40;99.90;;;;;;4162576;28;20236;-71
2021/11/25 05:10:18;;;;;;;8.52;7.20;;;19.30;99.90;;;;;;4163518;28;20711;-71
2021/11/25 05:12:21;;;;;;;9.23;7.57;;;19.40;99.90;;;;;;4164513;28;20262;-71
2021/11/25 05:14:23;;;;;;;9.57;7.45;;;19.30;99.90;;;;;;4163839;28;20212;-71
2021/11/25 05:16:25;;;;;;;9.57;7.25;;;19.30;99.90;;;;;;4162356;28;20723;-71
2021/11/25 05:18:28;;;;;;;9.88;7.70;;;19.30;99.90;;;;;;4163625;28;20921;-72
2021/11/25 05:20:30;;;;;;;8.45;7.50;;;19.30;99.90;;;;;;4163748;28;20213;-71
2021/11/25 05:22:34;;;;;;;10.50;7.78;;;19.40;99.90;;;;;;4164294;28;20212;-71
2021/11/25 05:24:36;;;;;;;9.75;8.05;;;19.40;99.90;;;;;;4161490;28;20547;-71
2021/11/25 05:26:38;;;;;;;8.35;7.15;;;19.40;99.90;;;;;;4164023;28;20255;-73
2021/11/25 05:28:41;;;;;;;9.10;7.82;;;19.30;99.90;;;;;;4163904;28;20283;-74
2021/11/25 05:30:43;;;;;;;10.90;8.07;;;19.30;99.90;;;;;;4163494;28;20266;-73
2021/11/25 05:32:46;;;;;;;10.07;8.18;;;19.30;99.90;;;;;;4163617;28;20216;-73
2021/11/25 05:34:49;;;;;;;9.20;6.85;;;19.30;99.90;;;;;;4163611;28;20259;-73
2021/11/25 05:36:51;;;;;;;8.57;7.50;;;19.30;99.90;;;;;;4164016;28;20266;-73
2021/11/25 05:38:55;;;;;;;9.15;7.38;;;19.30;99.90;;;;;;4163465;28;20254;-73
2021/11/25 05:40:57;;;;;;;8.48;7.30;;;19.20;99.90;;;;;;4162096;28;20743;-73
2021/11/25 05:42:59;;;;;;;8.70;7.80;;;19.30;99.90;;;;;;4163703;28;20732;-73
2021/11/25 05:45:02;;;;;;;8.38;7.15;;;19.30;99.90;;;;;;4163325;28;20265;-73
2021/11/25 05:47:05;;;;;;;9.90;7.85;;;19.20;99.90;;;;;;4163621;28;20208;-73
2021/11/25 05:49:07;;;;;;;9.68;7.85;;;19.30;99.90;;;;;;4163940;28;20747;-73
2021/11/25 05:51:09;;;;;;;9.43;8.00;;;19.20;99.90;;;;;;4163687;28;20216;-73
2021/11/25 05:53:17;;;;;;;9.57;8.15;;;19.20;99.90;;;;;;4163418;28;20212;-73
2021/11/25 05:55:23;;;;;;;9.32;7.93;;;19.10;99.90;;;;;;4162929;28;20208;-73
2021/11/25 05:57:26;;;;;;;10.23;7.78;;;19.10;99.90;;;;;;4163674;28;20217;-73
2021/11/25 05:59:28;;;;;;;9.73;7.82;;;19.10;99.90;;;;;;4162609;28;20335;-73
2021/11/25 06:01:30;;;;;;;10.35;8.30;;;19.10;99.90;;;;;;4163367;28;20715;-73
2021/11/25 06:03:33;;;;;;;9.98;7.90;;;19.20;99.90;;;;;;4163455;28;20278;-74
2021/11/25 06:05:36;;;;;;;9.90;8.23;;;19.20;99.90;;;;;;4163043;28;20343;-73
2021/11/25 06:07:42;;;;;;;10.73;8.35;;;19.30;99.90;;;;;;4163119;28;20274;-73
2021/11/25 06:09:44;;;;;;;11.57;8.48;;;19.30;99.90;;;;;;4161038;28;20216;-73
2021/11/25 06:11:49;;;;;;;10.75;8.55;;;19.40;99.90;;;;;;4162772;28;20216;-73
2021/11/25 06:13:52;;;;;;;10.30;8.85;;;19.40;99.90;;;;;;4162595;28;20684;-73
2021/11/25 06:15:54;;;;;;;10.85;7.90;;;19.40;99.90;;;;;;4162510;28;20216;-73
2021/11/25 06:17:57;;;;;;;11.68;8.98;;;19.50;99.90;;;;;;4163241;28;20208;-73
2021/11/25 06:19:59;;;;;;;10.15;8.48;;;19.50;99.90;;;;;;4162757;28;20267;-73
2021/11/25 06:22:01;;;;;;;12.25;9.07;;;19.50;99.90;;;;;;4163410;28;20701;-73
2021/11/25 06:24:04;;;;;;;10.50;9.40;;;19.50;99.90;;;;;;4163424;28;20212;-74
2021/11/25 06:26:09;;;;;;;13.43;9.27;;;19.50;99.90;;;;;;4162945;28;20247;-73
2021/11/25 06:28:13;;;;;;;10.43;8.48;;;19.50;99.90;;;;;;4162649;28;20236;-72
2021/11/25 06:30:16;;;;;;;11.10;8.52;;;19.50;99.90;;;;;;4162379;28;20204;-72
2021/11/25 06:32:19;;;;;;;11.07;8.85;;;19.50;99.90;;;;;;4162259;28;20228;-73
2021/11/25 06:34:21;;;;;;;11.10;9.20;;;19.50;99.90;;;;;;4162586;28;20216;-74
2021/11/25 06:36:23;;;;;;;11.13;9.02;;;19.60;99.90;;;;;;4161956;28;20213;-73
2021/11/25 06:38:26;;;;;;;10.57;8.75;;;19.60;99.90;;;;;;4162832;28;20251;-73
2021/11/25 06:40:29;;;;;;;14.98;9.90;;;19.60;99.90;;;;;;4162763;28;20267;-73
2021/11/25 06:42:32;;;;;;;11.02;8.57;;;19.60;99.90;;;;;;4162399;28;20262;-71
2021/11/25 06:44:35;;;;;;;10.93;8.68;;;19.60;99.90;;;;;;4162867;28;20212;-73
2021/11/25 06:46:38;;;;;;;12.43;8.95;;;19.60;99.90;;;;;;4162695;28;20224;-73
2021/11/25 06:48:40;;;;;;;11.15;9.30;;;19.60;99.90;;;;;;4162110;28;20697;-74
2021/11/25 06:50:42;;;;;;;11.40;9.60;;;19.60;99.90;;;;;;4162542;28;20217;-73
2021/11/25 06:52:45;;;;;;;11.50;9.48;;;19.60;99.90;;;;;;4162370;28;20263;-73
2021/11/25 06:54:48;;;;;;;10.02;8.13;;;19.60;99.90;;;;;;4162616;28;20212;-73
2021/11/25 06:56:50;;;;;;;12.43;9.43;;;19.60;99.90;;;;;;4161975;28;20236;-73
2021/11/25 06:58:52;;;;;;;12.05;8.90;;;19.60;99.90;;;;;;4162229;28;20216;-74
2021/11/25 07:00:57;;;;;;;12.07;8.07;;;19.60;99.90;;;;;;4162297;28;20212;-74
2021/11/25 07:02:59;;;;;;;10.13;8.63;;;19.60;99.90;;;;;;4162506;28;20956;-73
2021/11/25 07:05:02;;;;;;;10.82;8.38;;;19.70;99.90;;;;;;4159585;28;20221;-72
2021/11/25 07:07:05;;;;;;;11.73;9.45;;;19.70;99.90;;;;;;4161634;28;20286;-72
2021/11/25 07:09:07;;;;;;;10.27;8.35;;;19.70;99.90;;;;;;4161942;28;20236;-73
2021/11/25 07:11:10;;;;;;;12.82;9.07;;;19.70;99.90;;;;;;4162078;28;20254;-74
2021/11/25 07:13:12;;;;;;;11.02;8.95;;;19.70;99.90;;;;;;4162161;28;20235;-73
2021/11/25 07:15:16;;;;;;;10.90;9.18;;;19.70;99.90;;;;;;4162564;28;20216;-73
2021/11/25 07:17:20;;;;;;;10.35;8.63;;;19.70;99.90;;;;;;4162648;28;20220;-71
2021/11/25 07:19:22;;;;;;;12.75;9.20;;;19.70;99.90;;;;;;4162441;28;20221;-71
2021/11/25 07:21:25;;;;;;;10.43;8.45;;;19.70;99.90;;;;;;4162052;28;20384;-71
2021/11/25 07:23:27;;;;;;;12.77;9.55;;;19.70;99.90;;;;;;4159983;28;20317;-71
2021/11/25 07:25:29;;;;;;;10.05;8.95;;;19.70;99.90;;;;;;4162039;28;20270;-72
2021/11/25 07:27:32;;;;;;;11.95;8.93;;;19.70;99.90;;;;;;4161688;28;20618;-72
2021/11/25 07:29:35;;;;;;;10.15;7.88;;;19.70;99.90;;;;;;4159685;28;20639;-71
2021/11/25 07:31:38;;;;;;;9.45;8.20;;;19.70;99.90;;;;;;4162361;28;20279;-72
2021/11/25 07:33:42;;;;;;;9.35;7.97;;;19.80;99.90;;;;;;4161808;28;20216;-71
2021/11/25 07:35:46;;;;;;;10.27;8.60;;;19.70;99.90;;;;;;4161882;28;20302;-72
2021/11/25 07:37:49;;;;;;;10.25;8.05;;;19.80;99.90;;;;;;4161742;28;20221;-73
2021/11/25 07:39:51;;;;;;;9.20;7.88;;;19.70;99.90;;;;;;4161661;28;20204;-74
2021/11/25 07:41:53;;;;;;;9.52;8.15;;;19.70;99.90;;;;;;4160184;28;20302;-72
2021/11/25 07:43:56;;;;;;;10.07;8.77;;;19.80;99.90;;;;;;4162391;28;20250;-72
2021/11/25 07:45:59;;;;;;;9.63;8.30;;;19.70;99.90;;;;;;4161825;28;20209;-72
2021/11/25 07:48:02;;;;;;;9.85;8.00;;;19.70;99.90;;;;;;4161080;28;20635;-72
2021/11/25 07:50:08;;;;;;;9.88;8.25;;;19.70;99.90;;;;;;4161307;28;20232;-72
2021/11/25 07:52:11;;;;;;;10.18;8.73;;;19.70;99.90;;;;;;4161563;28;20209;-74
2021/11/25 07:54:13;;;;;;;11.25;8.38;;;19.80;99.90;;;;;;4161588;28;20718;-73
2021/11/25 07:56:15;;;;;;;9.23;7.68;;;19.80;99.90;;;;;;4161285;28;20240;-73
2021/11/25 07:58:20;;;;;;;16.15;10.60;;;19.80;99.90;;;;;;4156938;28;20239;-75
2021/11/25 08:00:25;;;;;;;24.23;10.65;;;19.70;99.90;;;;;;4156665;28;20561;-72
2021/11/25 08:02:27;;;;;;;21.02;14.90;;;19.80;99.90;;;;;;4158619;28;20637;-72
2021/11/25 08:04:29;;;;;;;16.58;13.13;;;19.50;99.90;;;;;;4128466;28;20283;-74
2021/11/25 08:06:33;;;;;;;14.57;11.32;;;19.50;99.90;;;;;;4151649;28;20620;-72
2021/11/25 08:08:35;;;;;;;16.05;12.13;;;19.70;99.90;;;;;;4144332;28;20227;-71
2021/11/25 08:10:39;;;;;;;13.23;10.80;;;19.80;99.90;;;;;;4162501;28;20603;-71
2021/11/25 08:12:42;;;;;;;12.52;9.98;;;20.00;99.90;;;;;;4159585;28;20263;-70
2021/11/25 08:14:45;;;;;;;17.90;10.90;;;20.00;99.90;;;;;;4159012;28;20216;-72
2021/11/25 08:16:47;;;;;;;15.30;10.38;;;20.10;99.90;;;;;;4160104;28;20228;-71
2021/11/25 08:18:49;;;;;;;13.55;10.40;;;20.20;99.90;;;;;;4160505;28;20275;-70
2021/11/25 08:20:55;;;;;;;13.20;10.55;;;20.20;99.90;;;;;;4159470;28;20626;-71
2021/11/25 08:22:59;;;;;;;12.93;10.45;;;20.20;99.90;;;;;;4159329;28;20267;-73
2021/11/25 08:25:05;;;;;;;14.48;10.50;;;20.20;99.90;;;;;;4150933;28;20216;-74
2021/11/25 08:27:07;;;;;;;13.98;10.85;;;20.30;99.90;;;;;;4151415;28;20220;-73
2021/11/25 08:29:09;;;;;;;13.27;10.85;;;20.30;99.90;;;;;;4156127;28;20240;-75
2021/11/25 08:31:12;;;;;;;18.77;9.27;;;20.30;99.90;;;;;;4158937;28;20221;-73
2021/11/25 08:33:14;;;;;;;12.50;9.45;;;20.30;99.90;;;;;;4161571;28;20661;-73
2021/11/25 08:35:17;;;;;;;16.52;10.80;;;20.20;99.90;;;;;;4153602;28;20661;-76
2021/11/25 08:37:19;;;;;;;14.95;11.18;;;20.20;99.90;;;;;;4161588;28;20212;-75
2021/11/25 08:39:23;;;;;;;18.35;11.05;;;20.20;99.90;;;;;;4152032;28;20209;-74
2021/11/25 08:41:25;;;;;;;14.35;9.48;;;20.20;99.90;;;;;;4160625;28;20216;-74
2021/11/25 08:43:28;;;;;;;14.48;8.60;;;20.20;99.90;;;;;;4154813;28;20595;-73
2021/11/25 08:45:33;;;;;;;12.05;9.15;;;20.20;99.90;;;;;;4160433;28;20275;-73
2021/11/25 08:47:36;;;;;;;13.38;9.98;;;20.20;99.90;;;;;;4161856;28;20209;-74
2021/11/25 08:49:38;;;;;;;15.63;9.85;;;20.20;99.90;;;;;;4161310;28;20267;-75
2021/11/25 08:51:40;;;;;;;12.35;8.95;;;20.20;99.90;;;;;;4156895;28;20220;-73
2021/11/25 08:53:43;;;;;;;12.85;9.18;;;20.20;99.90;;;;;;4154791;28;22055;-73
2021/11/25 08:55:48;;;;;;;18.50;9.57;;;20.20;99.90;;;;;;4153809;28;20286;-75
2021/11/25 08:57:50;;;;;;;17.08;9.85;;;20.30;99.90;;;;;;4155502;28;20243;-74
2021/11/25 08:59:53;;;;;;;11.40;8.27;;;20.40;99.90;;;;;;4161087;28;20271;-76
2021/11/25 09:01:55;;;;;;;15.50;10.70;;;20.40;99.90;;;;;;4160563;28;20212;-74
2021/11/25 09:03:57;;;;;;;13.07;10.05;;;20.50;99.90;;;;;;4157294;28;20220;-72
2021/11/25 09:06:00;;;;;;;15.43;10.70;;;20.50;99.90;;;;;;4157772;28;20283;-71
2021/11/25 09:08:02;;;;;;;16.58;9.88;;;20.50;99.90;;;;;;4156795;28;20276;-71
2021/11/25 09:10:06;;;;;;;15.60;9.65;;;20.50;99.90;;;;;;4164686;28;20278;-71
2021/11/25 09:12:10;;;;;;;22.33;16.17;;;20.50;99.90;;;;;;4161372;28;20217;-71
2021/11/25 09:14:12;;;;;;;22.63;17.23;;;20.40;99.90;;;;;;4156756;28;20220;-71
2021/11/25 09:16:17;;;;;;;19.05;13.82;;;20.20;99.90;;;;;;4162144;28;20220;-72
2021/11/25 09:18:20;;;;;;;18.23;13.75;;;20.10;99.90;;;;;;4164123;28;20255;-72
2021/11/25 09:20:26;;;;;;;15.05;12.38;;;20.20;99.90;;;;;;4164152;28;20255;-75
2021/11/25 09:22:29;;;;;;;15.60;12.15;;;20.20;99.90;;;;;;4152948;28;20221;-71
2021/11/25 09:24:31;;;;;;;15.30;11.40;;;20.30;99.90;;;;;;4157476;28;20626;-73
2021/11/25 09:26:35;;;;;;;12.98;10.85;;;20.30;99.90;;;;;;4161031;28;20323;-73
2021/11/25 09:28:38;;;;;;;17.20;9.77;;;20.40;99.90;;;;;;4163190;28;20282;-71
2021/11/25 09:30:41;;;;;;;13.30;9.85;;;20.40;99.90;;;;;;4164147;28;20937;-72
2021/11/25 09:32:43;;;;;;;14.30;9.70;;;20.50;99.90;;;;;;4164458;28;20275;-72
2021/11/25 09:34:46;;;;;;;12.60;8.85;;;20.50;99.90;;;;;;4155910;28;20271;-74
2021/11/25 09:36:48;;;;;;;13.57;8.80;;;20.50;99.90;;;;;;4162559;28;20220;-74
2021/11/25 09:38:51;;;;;;;11.52;8.40;;;20.60;99.90;;;;;;4162149;28;20220;-73
2021/11/25 09:40:53;;;;;;;10.95;8.30;;;20.60;99.90;;;;;;4159310;28;20208;-71
2021/11/25 09:42:58;;;;;;;13.75;8.40;;;20.60;99.90;;;;;;4162866;28;20286;-74
2021/11/25 09:45:03;;;;;;;11.50;8.48;;;20.70;99.90;;;;;;4152260;28;20216;-73
2021/11/25 09:47:05;;;;;;;12.15;8.63;;;20.70;99.90;;;;;;4158671;28;20213;-73
2021/11/25 09:49:08;;;;;;;10.98;8.85;;;20.90;99.90;;;;;;4163330;28;20627;-72
2021/11/25 09:51:11;;;;;;;12.63;8.98;;;21.10;99.90;;;;;;4163033;28;20232;-73
2021/11/25 09:53:15;;;;;;;12.00;8.95;;;21.10;99.90;;;;;;4162012;28;20262;-73
2021/11/25 09:55:17;;;;;;;9.95;8.57;;;21.10;99.90;;;;;;4158135;28;20217;-73
2021/11/25 09:57:20;;;;;;;10.38;8.60;;;21.20;99.90;;;;;;4169505;28;20762;-72
2021/11/25 09:59:23;;;;;;;9.70;7.90;;;21.30;99.90;;;;;;4189987;28;20963;-73
2021/11/25 10:01:26;;;;;;;10.65;8.30;;;21.40;99.90;;;;;;4174002;28;20262;-73
2021/11/25 10:03:28;;;;;;;8.70;7.47;;;21.50;99.90;;;;;;4173629;28;20216;-71
2021/11/25 10:05:31;;;;;;;10.25;8.43;;;21.50;99.90;;;;;;4176650;28;20252;-71
2021/11/25 10:07:36;;;;;;;8.77;7.82;;;21.60;99.90;;;;;;4177976;28;20212;-73
2021/11/25 10:09:41;;;;;;;10.35;7.45;;;21.60;99.90;;;;;;4181046;28;20270;-74
2021/11/25 10:11:44;;;;;;;10.35;8.43;;;21.60;99.90;;;;;;4177828;28;20542;-73
2021/11/25 10:13:53;;;;;;;8.63;7.72;;;21.70;99.90;;;;;;4181548;28;20228;-73
2021/11/25 10:15:58;;;;;;;10.50;8.20;;;21.70;99.90;;;;;;4174488;28;20267;-74
2021/11/25 10:18:04;;;;;;;11.73;8.82;;;21.80;99.90;;;;;;4177513;28;20273;-74
2021/11/25 10:20:08;;;;;;;10.80;8.40;;;21.90;99.90;;;;;;4174149;28;20208;-74
2021/11/25 10:22:11;;;;;;;11.35;8.48;;;21.90;99.90;;;;;;4175907;28;20286;-74
2021/11/25 10:24:14;;;;;;;10.45;8.25;;;21.90;99.90;;;;;;4176472;28;20966;-73
2021/11/25 10:26:19;;;;;;;10.25;8.88;;;21.90;99.90;;;;;;4193140;28;20275;-71
2021/11/25 10:28:28;;;;;;;8.48;7.13;;;22.00;99.90;;;;;;4196328;28;20219;-70
2021/11/25 10:30:36;;;;;;;12.20;7.43;;;22.10;99.90;;;;;;4194368;28;20636;-72
2021/11/25 10:32:39;;;;;;;10.82;8.38;;;22.10;99.90;;;;;;4185170;28;20739;-73
2021/11/25 10:34:54;;;;;;;12.50;9.00;;;22.00;99.90;;;;;;4191396;28;20272;-74
2021/11/25 10:37:03;;;;;;;14.95;9.27;;;22.10;99.90;;;;;;4189369;28;20261;-72
2021/11/25 10:39:12;;;;;;;10.57;8.60;;;22.10;99.90;;;;;;4193178;28;20230;-73